Time;durP1;ratioP1;P1;durP2;ratioP2;P2;SDS_P1;SDS_P2;PMS_P1;PMS_P2;Temp;Humidity;BMP_temperature;BMP_pressure;BME280_temperature;BME280_humidity;BME280_pressure;Samples;Min_cycle;Max_cycle;Signal;HPM_P1;HPM_P2
2022/09/13 00:00:51;;;;;;;14.40;4.30;;;;;;;10.04;85.36;100168.36;105856;1271;22561;-67
2022/09/13 00:03:34;;;;;;;13.70;2.90;;;;;;;10.01;85.52;100163.59;105878;1271;22550;-68
2022/09/13 00:06:12;;;;;;;10.30;3.10;;;;;;;9.99;85.57;100157.30;105729;1271;25533;-70
2022/09/13 00:08:44;;;;;;;9.30;2.90;;;;;;;9.98;85.65;100152.02;105733;1271;22684;-67
2022/09/13 00:11:21;;;;;;;11.40;3.80;;;;;;;9.97;85.63;100150.17;105804;1271;23055;-69
2022/09/13 00:13:55;;;;;;;16.70;4.30;;;;;;;9.96;85.84;100147.45;106076;1273;24286;-67
2022/09/13 00:16:28;;;;;;;15.00;3.80;;;;;;;9.96;86.21;100147.61;106104;1271;25214;-67
2022/09/13 00:19:01;;;;;;;17.40;4.30;;;;;;;9.94;86.06;100148.63;106030;1271;22659;-68
2022/09/13 00:21:33;;;;;;;13.80;3.40;;;;;;;9.92;86.20;100147.57;105745;1271;24266;-68
2022/09/13 00:24:05;;;;;;;14.30;3.70;;;;;;;9.89;85.99;100145.95;105817;1272;24248;-67
2022/09/13 00:26:36;;;;;;;14.50;4.00;;;;;;;9.88;86.08;100145.77;105911;1271;24307;-68
2022/09/13 00:29:08;;;;;;;10.80;3.60;;;;;;;9.87;86.07;100140.33;105766;1271;29438;-68
2022/09/13 00:31:39;;;;;;;12.10;4.20;;;;;;;9.85;86.21;100133.80;105942;1271;22702;-69
2022/09/13 00:34:13;;;;;;;14.00;4.20;;;;;;;9.81;86.15;100135.61;105701;1271;22515;-68
2022/09/13 00:36:44;;;;;;;13.80;4.30;;;;;;;9.78;86.18;100133.21;105897;1271;22626;-67
2022/09/13 00:39:16;;;;;;;14.80;3.80;;;;;;;9.76;86.30;100133.17;105930;1272;22569;-69
2022/09/13 00:41:47;;;;;;;13.90;4.20;;;;;;;9.75;86.21;100126.85;105916;1271;25833;-68
2022/09/13 00:44:54;;;;;;;13.00;3.90;;;;;;;9.73;86.08;100125.34;105786;1271;22701;-67
2022/09/13 00:47:30;;;;;;;12.70;3.80;;;;;;;9.70;86.09;100127.11;105718;1271;25434;-68
2022/09/13 00:50:06;;;;;;;11.30;4.10;;;;;;;9.66;86.19;100129.43;105791;1271;22660;-69
2022/09/13 00:52:40;;;;;;;13.70;4.50;;;;;;;9.63;85.97;100131.02;105929;1271;22532;-68
2022/09/13 00:55:18;;;;;;;15.60;4.90;;;;;;;9.59;86.16;100128.31;105641;1271;25570;-68
2022/09/13 00:57:50;;;;;;;13.40;4.00;;;;;;;9.58;86.04;100118.90;105862;1271;24301;-68
2022/09/13 01:00:22;;;;;;;10.80;3.40;;;;;;;9.56;86.13;100118.63;105784;1271;25526;-68
2022/09/13 01:02:57;;;;;;;11.20;3.90;;;;;;;9.53;85.90;100120.27;106056;1271;22570;-72
2022/09/13 01:05:32;;;;;;;11.60;3.50;;;;;;;9.50;86.16;100118.70;106250;1271;25838;-69
2022/09/13 01:08:21;;;;;;;11.20;3.30;;;;;;;9.46;86.16;100124.64;106412;1270;26645;-69
2022/09/13 01:10:57;;;;;;;11.80;3.70;;;;;;;9.41;86.14;100123.20;105810;1270;23066;-68
2022/09/13 01:13:32;;;;;;;9.90;3.20;;;;;;;9.39;86.15;100125.70;106241;1270;22532;-67
2022/09/13 01:16:04;;;;;;;11.80;3.20;;;;;;;9.36;86.05;100123.73;105896;1270;22534;-68
2022/09/13 01:18:35;;;;;;;10.70;2.70;;;;;;;9.32;86.05;100123.06;105952;1270;23245;-70
2022/09/13 01:21:36;;;;;;;14.50;3.00;;;;;;;9.28;86.07;100121.55;106018;1270;22914;-71
2022/09/13 01:24:50;;;;;;;10.00;2.40;;;;;;;9.25;86.02;100119.20;105909;1270;25321;-68
2022/09/13 01:27:40;;;;;;;11.70;2.30;;;;;;;9.20;86.03;100119.69;105921;1270;22534;-68
2022/09/13 01:30:22;;;;;;;10.40;2.70;;;;;;;9.15;86.07;100118.02;105940;1270;24361;-69
2022/09/13 01:33:12;;;;;;;8.20;2.50;;;;;;;9.11;86.08;100115.44;105993;1270;23090;-68
2022/09/13 01:35:56;;;;;;;8.80;2.80;;;;;;;9.08;86.09;100112.89;105814;1270;25438;-68
2022/09/13 01:38:47;;;;;;;8.80;2.50;;;;;;;9.05;85.96;100109.59;106044;1270;22720;-69
2022/09/13 01:41:32;;;;;;;9.30;2.50;;;;;;;9.01;85.86;100109.79;105945;1270;23805;-69
2022/09/13 01:44:14;;;;;;;9.10;3.20;;;;;;;8.98;86.03;100109.19;105982;1270;25261;-69
2022/09/13 01:46:52;;;;;;;12.80;2.70;;;;;;;8.96;86.02;100100.84;102085;1270;5433187;-67
2022/09/13 01:49:31;;;;;;;13.50;3.20;;;;;;;8.97;86.26;100097.95;105968;1270;23501;-68
2022/09/13 01:52:08;;;;;;;10.50;3.00;;;;;;;8.96;86.25;100097.04;105981;1270;22622;-68
2022/09/13 01:54:50;;;;;;;8.70;2.90;;;;;;;8.94;86.09;100098.35;105955;1270;22684;-68
2022/09/13 01:57:28;;;;;;;10.40;3.30;;;;;;;8.91;86.34;100092.83;105898;1270;22525;-68
2022/09/13 02:00:05;;;;;;;10.90;3.50;;;;;;;8.91;86.32;100084.02;105997;1270;22626;-68
2022/09/13 02:02:42;;;;;;;10.10;2.90;;;;;;;8.89;86.39;100082.81;106047;1270;22610;-68
2022/09/13 02:05:18;;;;;;;9.80;3.00;;;;;;;8.88;86.33;100077.96;105969;1270;25531;-68
2022/09/13 02:07:58;;;;;;;8.00;2.60;;;;;;;8.87;86.46;100075.77;105989;1270;22552;-69
2022/09/13 02:10:35;;;;;;;13.10;4.70;;;;;;;8.86;86.86;100071.69;106273;1270;24318;-69
2022/09/13 02:13:11;;;;;;;13.60;4.60;;;;;;;8.86;87.01;100066.27;105950;1270;23930;-69
2022/09/13 02:15:47;;;;;;;12.90;4.60;;;;;;;8.85;87.03;100060.98;105960;1270;25408;-68
2022/09/13 02:18:22;;;;;;;15.50;5.10;;;;;;;8.82;87.24;100054.61;106010;1270;22547;-68
2022/09/13 02:20:59;;;;;;;16.90;4.80;;;;;;;8.80;87.28;100051.11;106068;1270;22543;-68
2022/09/13 02:23:36;;;;;;;19.20;5.60;;;;;;;8.79;87.43;100046.63;106025;1270;22565;-68
2022/09/13 02:26:09;;;;;;;12.30;4.20;;;;;;;8.79;87.12;100046.02;106053;1270;22803;-69
2022/09/13 02:28:45;;;;;;;12.90;4.40;;;;;;;8.77;87.18;100048.26;105937;1270;22532;-68
2022/09/13 02:31:24;;;;;;;11.10;3.40;;;;;;;8.76;87.31;100042.83;106050;1267;22547;-68
2022/09/13 02:34:00;;;;;;;14.70;3.90;;;;;;;8.75;87.27;100048.36;105985;1270;22548;-68
2022/09/13 02:36:35;;;;;;;15.30;4.10;;;;;;;8.74;87.41;100044.41;106103;1270;22621;-69
2022/09/13 02:39:10;;;;;;;14.80;4.40;;;;;;;8.73;87.56;100044.94;106045;1267;22607;-68
2022/09/13 02:41:48;;;;;;;12.90;4.20;;;;;;;8.71;87.52;100040.44;106250;1270;23057;-70
2022/09/13 02:44:26;;;;;;;11.30;4.00;;;;;;;8.70;87.52;100033.88;106056;1270;25487;-69
2022/09/13 02:47:10;;;;;;;13.60;4.90;;;;;;;8.69;87.41;100032.98;106506;1270;24329;-69
2022/09/13 02:49:55;;;;;;;12.50;4.20;;;;;;;8.67;87.43;100032.60;106388;1270;22619;-70
2022/09/13 02:52:39;;;;;;;14.20;3.90;;;;;;;8.65;87.39;100028.35;106352;1270;22532;-69
2022/09/13 02:55:19;;;;;;;11.90;3.30;;;;;;;8.63;87.49;100025.63;106474;1270;23868;-70
2022/09/13 02:58:00;;;;;;;16.50;3.80;;;;;;;8.63;87.24;100026.05;106315;1270;24312;-69
2022/09/13 03:00:31;;;;;;;;;;;;;;;8.62;87.24;100023.26;106437;1270;22542;-69
2022/09/13 03:03:06;;;;;;;15.30;4.30;;;;;;;8.59;87.39;100022.48;106407;1270;26581;-69
2022/09/13 03:05:37;;;;;;;16.80;4.10;;;;;;;8.58;87.32;100016.60;105894;1270;25487;-68
2022/09/13 03:08:11;;;;;;;14.20;4.50;;;;;;;8.58;87.39;100016.36;106024;1270;25377;-69
2022/09/13 03:10:55;;;;;;;16.20;5.20;;;;;;;8.59;87.59;100009.23;105978;1270;22527;-70
2022/09/13 03:13:41;;;;;;;12.50;3.70;;;;;;;8.58;87.72;100004.16;106020;1270;25274;-68
2022/09/13 03:16:37;;;;;;;11.80;3.00;;;;;;;8.57;87.84;99999.52;106681;1270;25460;-69
2022/09/13 03:19:31;;;;;;;12.30;3.70;;;;;;;8.58;87.81;99993.45;106085;1270;22537;-70
2022/09/13 03:22:23;;;;;;;15.90;5.60;;;;;;;8.58;87.99;99993.23;105855;1270;25128;-71
2022/09/13 03:25:06;;;;;;;11.70;3.90;;;;;;;8.57;88.13;99983.23;105937;1270;22614;-72
2022/09/13 03:27:45;;;;;;;12.80;4.40;;;;;;;8.57;87.98;99982.31;105983;1270;22690;-69
2022/09/13 03:30:18;;;;;;;15.20;4.60;;;;;;;8.56;88.21;99985.90;106095;1270;24374;-70
2022/09/13 03:32:57;;;;;;;12.20;3.90;;;;;;;8.56;88.13;99978.61;105841;1270;25259;-69
2022/09/13 03:35:37;;;;;;;12.60;3.60;;;;;;;8.56;88.15;99979.16;105939;1270;25426;-69
2022/09/13 03:38:12;;;;;;;16.30;3.90;;;;;;;8.55;88.16;99977.52;105994;1270;25496;-69
2022/09/13 03:40:48;;;;;;;16.00;4.80;;;;;;;8.55;88.30;99975.91;105986;1270;26152;-69
2022/09/13 03:43:25;;;;;;;14.20;4.40;;;;;;;8.56;88.45;99971.38;105950;1270;23134;-68
2022/09/13 03:46:02;;;;;;;13.90;3.90;;;;;;;8.56;88.45;99967.14;105891;1270;25326;-68
2022/09/13 03:48:36;;;;;;;11.40;2.90;;;;;;;8.57;88.52;99965.21;106162;1270;22560;-68
2022/09/13 03:51:10;;;;;;;10.70;3.40;;;;;;;8.58;88.77;99958.63;105896;1270;24244;-69
2022/09/13 03:53:46;;;;;;;12.20;3.90;;;;;;;8.60;88.75;99955.77;106080;1270;25344;-70
2022/09/13 03:56:19;;;;;;;17.30;5.30;;;;;;;8.60;88.86;99957.09;106524;1270;25310;-69
2022/09/13 03:58:53;;;;;;;14.50;4.80;;;;;;;8.60;88.81;99958.67;105939;1270;25253;-69
2022/09/13 04:01:25;;;;;;;14.20;5.30;;;;;;;8.60;88.86;99961.15;106107;1270;22655;-69
2022/09/13 04:03:57;;;;;;;15.90;4.60;;;;;;;8.59;89.00;99965.88;106087;1270;25034;-69
2022/09/13 04:06:29;;;;;;;16.20;4.30;;;;;;;8.58;88.78;99966.92;106085;1270;25251;-68
2022/09/13 04:09:00;;;;;;;13.20;3.40;;;;;;;8.56;88.80;99964.85;106015;1270;25328;-68
2022/09/13 04:11:32;;;;;;;11.00;3.40;;;;;;;8.54;88.83;99962.27;106115;1270;22538;-70
2022/09/13 04:14:04;;;;;;;12.60;3.30;;;;;;;8.52;88.89;99965.11;106093;1270;25297;-72
2022/09/13 04:16:35;;;;;;;15.10;3.80;;;;;;;8.50;88.85;99967.23;106022;1270;22756;-70
2022/09/13 04:19:06;;;;;;;12.70;4.00;;;;;;;8.48;89.04;99969.41;106475;1270;22541;-69
2022/09/13 04:21:37;;;;;;;10.30;3.40;;;;;;;8.46;89.05;99964.15;106494;1270;22614;-71
2022/09/13 04:24:14;;;;;;;13.10;4.50;;;;;;;8.45;88.88;99961.72;106427;1270;22764;-70
2022/09/13 04:26:48;;;;;;;13.90;4.80;;;;;;;8.44;89.02;99959.77;106604;1270;22620;-71
2022/09/13 04:29:20;;;;;;;15.00;4.40;;;;;;;8.44;89.15;99962.25;106590;1270;24829;-69
2022/09/13 04:31:52;;;;;;;14.60;4.60;;;;;;;8.44;89.12;99957.90;106478;1270;22642;-69
2022/09/13 04:34:25;;;;;;;17.50;5.70;;;;;;;8.45;89.35;99964.13;106452;1270;24361;-69
2022/09/13 04:36:56;;;;;;;18.80;7.40;;;;;;;8.46;89.45;99965.73;106432;1270;22538;-69
2022/09/13 04:39:27;;;;;;;26.40;8.30;;;;;;;8.48;89.54;99964.38;106471;1270;22574;-69
2022/09/13 04:42:01;;;;;;;23.90;7.00;;;;;;;8.50;89.53;99960.92;105879;1270;25362;-69
2022/09/13 04:44:33;;;;;;;15.50;5.50;;;;;;;8.53;89.69;99963.36;106112;1270;22755;-70
2022/09/13 04:47:06;;;;;;;14.90;4.40;;;;;;;8.56;89.96;99961.60;106111;1270;24508;-73
2022/09/13 04:49:39;;;;;;;13.30;4.00;;;;;;;8.59;89.92;99958.59;106541;1270;22784;-68
2022/09/13 04:52:10;;;;;;;12.50;4.30;;;;;;;8.61;90.11;99955.77;106446;1271;22688;-69
2022/09/13 04:54:42;;;;;;;13.60;4.30;;;;;;;8.65;90.36;99954.88;106446;1271;23169;-69
2022/09/13 04:57:13;;;;;;;13.20;3.80;;;;;;;8.67;90.35;99958.73;106461;1270;25248;-69
2022/09/13 04:59:44;;;;;;;18.40;4.90;;;;;;;8.71;90.54;99957.73;106485;1270;25431;-69
2022/09/13 05:02:16;;;;;;;14.10;4.40;;;;;;;8.76;90.70;99958.86;106446;1270;22538;-69
2022/09/13 05:04:47;;;;;;;18.60;4.50;;;;;;;8.79;90.95;99951.75;106430;1270;24265;-69
2022/09/13 05:07:18;;;;;;;13.70;5.00;;;;;;;8.85;90.76;99951.97;106484;1270;23342;-69
2022/09/13 05:09:50;;;;;;;16.10;4.90;;;;;;;8.88;91.10;99951.70;106508;1271;25535;-68
2022/09/13 05:12:22;;;;;;;13.00;4.40;;;;;;;8.93;91.22;99957.81;106026;1270;24385;-70
2022/09/13 05:14:54;;;;;;;18.60;5.00;;;;;;;8.98;91.50;99959.08;105942;1270;22537;-69
2022/09/13 05:17:26;;;;;;;16.40;5.50;;;;;;;9.03;91.64;99960.29;106067;1270;22530;-68
2022/09/13 05:19:57;;;;;;;15.00;5.10;;;;;;;9.09;92.05;99962.92;106376;1271;24271;-69
2022/09/13 05:22:28;;;;;;;17.40;6.70;;;;;;;9.16;92.37;99967.02;106373;1271;22718;-69
2022/09/13 05:25:00;;;;;;;15.40;5.10;;;;;;;9.22;92.41;99963.77;106487;1271;22635;-68
2022/09/13 05:27:31;;;;;;;15.20;4.70;;;;;;;9.29;92.66;99960.11;105873;1271;22775;-69
2022/09/13 05:30:03;;;;;;;14.60;5.00;;;;;;;9.37;92.90;99962.04;106227;1270;24384;-68
2022/09/13 05:32:35;;;;;;;24.50;7.00;;;;;;;9.43;92.82;99957.46;107279;1270;25672;-69
2022/09/13 05:35:09;;;;;;;18.40;6.30;;;;;;;9.50;92.88;99963.23;105821;1271;22558;-70
2022/09/13 05:37:40;;;;;;;17.40;6.30;;;;;;;9.54;93.03;99968.09;107185;1270;22553;-72
2022/09/13 05:40:13;;;;;;;15.50;5.70;;;;;;;9.59;93.15;99960.17;105995;1269;22547;-69
2022/09/13 05:42:45;;;;;;;21.50;8.10;;;;;;;9.64;93.06;99956.77;105943;1271;22628;-69
2022/09/13 05:45:16;;;;;;;20.10;6.30;;;;;;;9.68;93.00;99956.59;105909;1270;22526;-69
2022/09/13 05:47:52;;;;;;;17.80;5.90;;;;;;;9.73;93.22;99956.41;105990;1271;22819;-70
2022/09/13 05:50:24;;;;;;;18.00;5.00;;;;;;;9.77;93.18;99948.55;106557;1271;22625;-69
2022/09/13 05:52:56;;;;;;;19.60;6.20;;;;;;;9.82;93.11;99945.08;106366;1270;22673;-69
2022/09/13 05:55:28;;;;;;;19.10;6.60;;;;;;;9.89;93.54;99944.98;106514;1270;22579;-70
2022/09/13 05:58:01;;;;;;;17.80;7.10;;;;;;;9.94;93.79;99942.45;106433;1270;22720;-71
2022/09/13 06:00:32;;;;;;;19.70;6.60;;;;;;;9.99;94.02;99942.32;106322;1271;22622;-69
2022/09/13 06:03:03;;;;;;;16.70;6.70;;;;;;;10.06;94.17;99938.12;105883;1270;22731;-69
2022/09/13 06:05:35;;;;;;;18.20;6.40;;;;;;;10.13;94.57;99937.10;105981;1270;25690;-69
2022/09/13 06:08:07;;;;;;;22.40;7.00;;;;;;;10.21;95.09;99932.96;106009;1270;25364;-71
2022/09/13 06:10:39;;;;;;;17.90;7.30;;;;;;;10.29;95.28;99926.80;105956;1271;22573;-69
2022/09/13 06:13:12;;;;;;;19.00;7.30;;;;;;;10.37;95.60;99917.42;105958;1270;24145;-69
2022/09/13 06:15:43;;;;;;;19.10;6.90;;;;;;;10.45;95.43;99914.25;105980;1271;22620;-69
2022/09/13 06:18:15;;;;;;;17.70;7.30;;;;;;;10.54;96.26;99912.95;106013;1271;22564;-69
2022/09/13 06:20:47;;;;;;;17.10;7.10;;;;;;;10.62;96.55;99902.70;106045;1271;24318;-72
2022/09/13 06:23:19;;;;;;;18.90;6.90;;;;;;;10.70;96.24;99905.64;105986;1271;22819;-71
2022/09/13 06:25:50;;;;;;;17.10;7.00;;;;;;;10.77;96.21;99898.77;105988;1271;25334;-70
2022/09/13 06:28:23;;;;;;;15.20;6.70;;;;;;;10.84;96.33;99895.48;105935;1271;22714;-72
2022/09/13 06:30:59;;;;;;;20.40;6.60;;;;;;;10.92;96.52;99890.27;106010;1271;23098;-75
2022/09/13 06:33:32;;;;;;;14.50;6.40;;;;;;;11.01;96.73;99891.80;105978;1271;25443;-70
2022/09/13 06:36:06;;;;;;;18.60;8.00;;;;;;;11.09;96.61;99893.84;105968;1271;22635;-69
2022/09/13 06:38:38;;;;;;;15.60;6.70;;;;;;;11.19;96.99;99891.23;105982;1271;23227;-70
2022/09/13 06:41:12;;;;;;;13.60;5.50;;;;;;;11.29;97.40;99893.03;105957;1271;22634;-72
2022/09/13 06:43:44;;;;;;;15.60;5.20;;;;;;;11.40;97.54;99886.09;106033;1271;22674;-69
2022/09/13 06:46:19;;;;;;;17.70;6.50;;;;;;;11.53;97.77;99882.20;106128;1271;22716;-69
2022/09/13 06:48:51;;;;;;;22.40;5.40;;;;;;;11.63;97.78;99875.80;105937;1271;25371;-69
2022/09/13 06:51:25;;;;;;;17.80;5.10;;;;;;;11.72;97.67;99872.69;105877;1271;25470;-71
2022/09/13 06:54:00;;;;;;;13.80;4.40;;;;;;;11.82;97.70;99869.13;105958;1271;22544;-70
2022/09/13 06:56:34;;;;;;;18.10;4.50;;;;;;;11.91;97.87;99869.59;106002;1271;22540;-70
2022/09/13 06:59:08;;;;;;;12.70;4.90;;;;;;;12.00;97.89;99872.77;106025;1271;25590;-71
2022/09/13 07:01:41;;;;;;;11.70;4.20;;;;;;;12.09;98.14;99871.05;105910;1271;22587;-69
2022/09/13 07:04:15;;;;;;;9.60;3.50;;;;;;;12.20;97.79;99870.65;105888;1271;24296;-71
2022/09/13 07:06:48;;;;;;;10.80;3.30;;;;;;;12.30;97.88;99872.76;105930;1271;25340;-69
2022/09/13 07:09:21;;;;;;;10.60;3.10;;;;;;;12.41;97.85;99876.23;106104;1271;22550;-69
2022/09/13 07:11:54;;;;;;;12.60;3.10;;;;;;;12.51;97.52;99873.13;105909;1271;22567;-69
2022/09/13 07:14:27;;;;;;;8.60;3.20;;;;;;;12.61;97.36;99871.86;105740;1271;25403;-72
2022/09/13 07:16:59;;;;;;;11.30;3.30;;;;;;;12.71;97.43;99866.60;106320;1270;22534;-71
2022/09/13 07:19:31;;;;;;;12.70;3.00;;;;;;;12.83;97.51;99870.95;106170;1271;22536;-71
2022/09/13 07:22:05;;;;;;;7.90;2.20;;;;;;;12.97;97.00;99874.76;106201;1271;22551;-69
2022/09/13 07:24:36;;;;;;;9.90;2.60;;;;;;;13.11;96.88;99876.15;106350;1271;22685;-70
2022/09/13 07:27:08;;;;;;;8.30;2.20;;;;;;;13.25;96.81;99873.23;106226;1270;22561;-69
2022/09/13 07:29:39;;;;;;;6.30;1.80;;;;;;;13.39;96.36;99870.70;106183;1270;22539;-70
2022/09/13 07:32:10;;;;;;;9.30;2.80;;;;;;;13.49;96.34;99865.22;106244;1271;22644;-70
2022/09/13 07:34:42;;;;;;;8.30;2.60;;;;;;;13.62;96.49;99864.63;106260;1271;22537;-70
2022/09/13 07:37:13;;;;;;;7.40;2.20;;;;;;;13.78;96.28;99867.29;106283;1271;25384;-68
2022/09/13 07:39:44;;;;;;;10.10;3.10;;;;;;;13.90;95.96;99865.80;105996;1271;23924;-72
2022/09/13 07:42:15;;;;;;;6.70;2.50;;;;;;;14.00;95.46;99863.80;105881;1271;22610;-71
2022/09/13 07:44:47;;;;;;;6.70;2.30;;;;;;;14.10;95.51;99867.05;106414;1270;22674;-70
2022/09/13 07:47:19;;;;;;;8.60;2.20;;;;;;;14.21;95.19;99870.77;106293;1271;22543;-70
2022/09/13 07:49:50;;;;;;;10.10;2.30;;;;;;;14.33;94.86;99872.66;106322;1271;22619;-69
2022/09/13 07:52:22;;;;;;;9.70;2.30;;;;;;;14.44;94.86;99873.15;106376;1270;22620;-69
2022/09/13 07:54:53;;;;;;;9.00;2.30;;;;;;;14.62;94.78;99872.13;106586;1271;22573;-71
2022/09/13 07:57:24;;;;;;;9.80;2.20;;;;;;;14.74;94.47;99869.99;106375;1271;23771;-69
2022/09/13 07:59:56;;;;;;;7.70;2.30;;;;;;;14.86;94.19;99866.86;105913;1271;22713;-72
2022/09/13 08:02:27;;;;;;;7.50;2.50;;;;;;;14.99;94.04;99863.65;105924;1271;25329;-69
2022/09/13 08:04:59;;;;;;;8.40;2.40;;;;;;;15.10;93.79;99863.70;106014;1271;22544;-69
2022/09/13 08:07:31;;;;;;;10.70;2.00;;;;;;;15.26;93.69;99863.14;106749;1271;25340;-70
2022/09/13 08:10:03;;;;;;;10.40;2.00;;;;;;;15.44;93.16;99864.06;106443;1271;22540;-70
2022/09/13 08:12:34;;;;;;;8.20;2.00;;;;;;;15.56;92.71;99862.58;106412;1271;22548;-70
2022/09/13 08:15:06;;;;;;;8.90;1.90;;;;;;;15.65;92.26;99856.10;106504;1271;24445;-70
2022/09/13 08:17:38;;;;;;;12.00;1.80;;;;;;;15.74;92.37;99861.61;106467;1271;25315;-68
2022/09/13 08:20:10;;;;;;;6.30;2.00;;;;;;;15.82;91.62;99859.35;106384;1270;22543;-68
2022/09/13 08:22:42;;;;;;;5.10;1.70;;;;;;;15.90;91.76;99855.44;106430;1270;22533;-68
2022/09/13 08:25:13;;;;;;;6.70;1.80;;;;;;;15.98;91.77;99849.88;106302;1271;22540;-68
2022/09/13 08:27:44;;;;;;;6.30;2.10;;;;;;;16.04;91.29;99852.95;106328;1271;22700;-68
2022/09/13 08:30:16;;;;;;;8.30;2.10;;;;;;;16.10;90.88;99850.14;106300;1271;25252;-68
2022/09/13 08:32:49;;;;;;;5.90;1.60;;;;;;;16.14;90.55;99847.27;106249;1271;22544;-67
2022/09/13 08:35:21;;;;;;;9.00;2.20;;;;;;;16.19;90.79;99842.51;106401;1270;25583;-68
2022/09/13 08:37:52;;;;;;;7.00;2.00;;;;;;;16.28;91.01;99839.30;106196;1270;24228;-68
2022/09/13 08:40:26;;;;;;;6.30;2.00;;;;;;;16.39;90.60;99838.88;105851;1270;24469;-66
2022/09/13 08:43:05;;;;;;;7.30;2.20;;;;;;;16.47;90.07;99840.27;106514;1270;25466;-67
2022/09/13 08:45:36;;;;;;;9.30;2.10;;;;;;;16.57;90.17;99844.70;105746;1270;22554;-68
2022/09/13 08:48:17;;;;;;;6.10;1.80;;;;;;;16.68;89.29;99843.69;105948;1270;22622;-69
2022/09/13 08:50:54;;;;;;;7.90;1.80;;;;;;;16.82;88.85;99840.92;106373;1270;22685;-67
2022/09/13 08:53:29;;;;;;;7.20;2.10;;;;;;;16.94;88.83;99837.92;106276;1270;26423;-69
2022/09/13 08:56:07;;;;;;;6.70;2.00;;;;;;;17.03;88.68;99830.63;105794;1270;22629;-70
2022/09/13 08:59:04;;;;;;;7.40;2.10;;;;;;;17.15;88.57;99830.52;105906;1270;22528;-68
2022/09/13 09:01:48;;;;;;;9.10;2.10;;;;;;;17.25;88.01;99830.16;105782;1270;25314;-68
2022/09/13 09:04:33;;;;;;;6.50;1.90;;;;;;;17.35;87.59;99831.30;105813;1270;22536;-68
2022/09/13 09:07:12;;;;;;;5.40;1.70;;;;;;;17.47;87.28;99832.10;105718;1270;22608;-68
2022/09/13 09:09:48;;;;;;;7.40;2.00;;;;;;;17.61;87.14;99831.54;106017;1270;22571;-68
2022/09/13 09:12:27;;;;;;;7.10;1.70;;;;;;;17.72;86.81;99829.36;105778;1270;26728;-68
2022/09/13 09:15:19;;;;;;;6.60;1.50;;;;;;;17.84;86.44;99822.90;105747;1270;25487;-67
2022/09/13 09:18:00;;;;;;;4.90;1.60;;;;;;;18.01;86.23;99814.08;106220;1270;24259;-67
2022/09/13 09:20:38;;;;;;;5.60;1.50;;;;;;;18.21;85.62;99813.04;106287;1270;22574;-67
2022/09/13 09:23:18;;;;;;;5.40;1.40;;;;;;;18.37;84.86;99808.66;105866;1270;25126;-67
2022/09/13 09:25:54;;;;;;;9.00;1.40;;;;;;;18.48;83.75;99806.93;105769;1271;25398;-67
2022/09/13 09:28:30;;;;;;;4.80;1.20;;;;;;;18.56;83.28;99800.34;105857;1270;25322;-68
2022/09/13 09:31:09;;;;;;;9.00;1.50;;;;;;;18.65;83.53;99792.00;106219;1269;25417;-68
2022/09/13 09:34:03;;;;;;;7.50;1.80;;;;;;;18.74;82.85;99789.48;106229;1270;25251;-67
2022/09/13 09:36:42;;;;;;;5.40;1.10;;;;;;;18.86;83.00;99783.73;105900;1270;25330;-68
2022/09/13 09:39:16;;;;;;;5.40;1.40;;;;;;;19.02;82.29;99782.25;105941;1270;24276;-67
2022/09/13 09:41:48;;;;;;;4.20;1.10;;;;;;;19.14;81.48;99780.57;105932;1270;25912;-68
2022/09/13 09:44:26;;;;;;;6.70;1.30;;;;;;;19.21;80.88;99780.90;105801;1270;25665;-69
2022/09/13 09:47:04;;;;;;;5.30;1.50;;;;;;;19.28;80.76;99781.79;106225;1270;25725;-68
2022/09/13 09:52:37;;;;;;;4.30;1.10;;;;;;;19.40;79.84;99780.96;105680;1270;22555;-68
2022/09/13 09:55:19;;;;;;;4.50;1.30;;;;;;;19.43;79.43;99777.60;105851;1270;22685;-68
2022/09/13 09:57:55;;;;;;;4.70;1.30;;;;;;;19.46;79.58;99774.25;105832;1270;22673;-67
2022/09/13 10:00:30;;;;;;;5.50;1.20;;;;;;;19.50;78.49;99766.57;106049;1268;22570;-69
2022/09/13 10:03:04;;;;;;;11.70;1.70;;;;;;;19.52;78.17;99762.36;105914;1270;23080;-68
2022/09/13 10:05:36;;;;;;;5.40;1.20;;;;;;;19.53;78.37;99755.85;105807;1269;22567;-67
2022/09/13 10:08:24;;;;;;;4.50;1.10;;;;;;;19.54;78.26;99755.98;105908;1270;22597;-67
2022/09/13 10:10:58;;;;;;;4.30;1.30;;;;;;;19.54;78.28;99747.18;105876;1270;22553;-67
2022/09/13 10:13:31;;;;;;;8.20;1.50;;;;;;;19.52;77.94;99744.22;106058;1270;24001;-67
2022/09/13 10:16:04;;;;;;;4.70;1.20;;;;;;;19.51;77.72;99743.75;105848;1270;24444;-67
2022/09/13 10:18:37;;;;;;;4.70;1.50;;;;;;;19.47;77.57;99742.14;105890;1270;22554;-67
2022/09/13 10:21:23;;;;;;;5.70;1.60;;;;;;;19.43;77.43;99737.56;105719;1270;23243;-67
2022/09/13 10:24:21;;;;;;;5.10;1.70;;;;;;;19.38;77.47;99730.87;105931;1270;22539;-67
2022/09/13 10:26:54;;;;;;;5.20;1.30;;;;;;;19.33;77.63;99722.34;105809;1270;22539;-67
2022/09/13 10:29:27;;;;;;;7.20;1.60;;;;;;;19.29;77.79;99721.03;105768;1270;24263;-67
2022/09/13 10:32:02;;;;;;;6.70;1.80;;;;;;;19.25;77.67;99717.02;105874;1270;24015;-67
2022/09/13 10:34:37;;;;;;;3.90;1.20;;;;;;;19.19;77.92;99711.09;106047;1270;23004;-68
2022/09/13 10:37:18;;;;;;;5.60;1.40;;;;;;;19.16;77.67;99715.52;105751;1270;23028;-68
2022/09/13 10:40:00;;;;;;;4.70;1.50;;;;;;;19.11;78.07;99712.07;105739;1270;25439;-69
2022/09/13 10:42:32;;;;;;;7.20;1.70;;;;;;;19.10;78.96;99708.73;105926;1270;24252;-66
2022/09/13 10:45:06;;;;;;;7.40;2.00;;;;;;;19.12;79.69;99713.28;105911;1270;24050;-67
2022/09/13 10:47:48;;;;;;;8.50;1.80;;;;;;;19.17;80.87;99710.23;105916;1270;25689;-67
2022/09/13 10:50:25;;;;;;;7.80;1.80;;;;;;;19.20;80.75;99707.44;105986;1270;22751;-67
2022/09/13 10:52:58;;;;;;;8.70;1.90;;;;;;;19.22;80.88;99710.09;106084;1270;22615;-66
2022/09/13 10:55:33;;;;;;;4.90;1.50;;;;;;;19.25;81.01;99707.70;106151;1270;22554;-67
2022/09/13 10:58:19;;;;;;;6.20;1.90;;;;;;;19.28;80.98;99700.48;106040;1270;22708;-67
2022/09/13 11:01:16;;;;;;;6.30;1.90;;;;;;;19.33;81.56;99702.64;105881;1270;25359;-68
2022/09/13 11:04:16;;;;;;;5.90;1.80;;;;;;;19.38;81.21;99701.25;105928;1270;22564;-69
2022/09/13 11:06:54;;;;;;;9.50;2.20;;;;;;;19.42;81.27;99691.80;106040;1270;24557;-67
2022/09/13 11:09:35;;;;;;;8.80;1.90;;;;;;;19.47;81.42;99694.98;106082;1270;22620;-67
2022/09/13 11:12:14;;;;;;;7.30;1.70;;;;;;;19.53;81.24;99691.30;105831;1270;22531;-67
2022/09/13 11:14:58;;;;;;;4.80;1.60;;;;;;;19.59;81.16;99686.81;105972;1270;22486;-67
2022/09/13 11:17:44;;;;;;;6.60;1.90;;;;;;;19.65;80.80;99690.04;105993;1270;23235;-66
2022/09/13 11:20:34;;;;;;;4.30;1.40;;;;;;;19.70;80.02;99688.97;105762;1270;26565;-66
2022/09/13 11:23:37;;;;;;;5.20;1.60;;;;;;;19.75;79.66;99683.91;105769;1270;22592;-66
2022/09/13 11:26:28;;;;;;;4.10;1.40;;;;;;;19.81;79.80;99678.77;105697;1270;22538;-67
2022/09/13 11:29:09;;;;;;;3.40;1.10;;;;;;;19.87;79.04;99675.27;106040;1270;24247;-68
2022/09/13 11:31:50;;;;;;;4.80;1.30;;;;;;;19.95;78.83;99671.44;105942;1270;24419;-68
2022/09/13 11:34:37;;;;;;;6.80;1.30;;;;;;;20.03;78.44;99668.52;105917;1270;22547;-66
2022/09/13 11:37:24;;;;;;;5.80;1.10;;;;;;;20.11;78.30;99665.92;105891;1270;25624;-68
2022/09/13 11:40:05;;;;;;;4.00;1.30;;;;;;;20.21;77.01;99667.45;106071;1270;24614;-67
2022/09/13 11:42:47;;;;;;;7.30;1.30;;;;;;;20.29;76.79;99662.45;105936;1270;22711;-67
2022/09/13 11:45:25;;;;;;;6.20;1.40;;;;;;;20.37;76.63;99660.73;105837;1270;22703;-67
2022/09/13 11:48:18;;;;;;;3.20;1.10;;;;;;;20.43;75.63;99663.33;105979;1270;25429;-68
2022/09/13 11:50:59;;;;;;;7.00;1.20;;;;;;;20.43;73.97;99654.67;105972;1270;22553;-68
2022/09/13 11:53:56;;;;;;;4.90;1.10;;;;;;;20.42;73.23;99657.27;106153;1270;25302;-67
2022/09/13 11:56:34;;;;;;;5.60;1.10;;;;;;;20.39;72.39;99657.20;105896;1270;25368;-68
2022/09/13 11:59:17;;;;;;;4.40;1.00;;;;;;;20.39;72.44;99653.91;105893;1270;22547;-69
2022/09/13 12:01:57;;;;;;;6.80;1.20;;;;;;;20.41;72.58;99656.38;105921;1270;22739;-67
2022/09/13 12:04:33;;;;;;;4.10;1.20;;;;;;;20.43;72.58;99654.55;105811;1270;25440;-68
2022/09/13 12:07:12;;;;;;;6.20;1.50;;;;;;;20.46;72.40;99651.29;105965;1270;24265;-67